Time;durP1;ratioP1;P1;durP2;ratioP2;P2;SDS_P1;SDS_P2;PMS_P1;PMS_P2;Temp;Humidity;BMP_temperature;BMP_pressure;BME280_temperature;BME280_humidity;BME280_pressure;Samples;Min_cycle;Max_cycle;Signal;HPM_P1;HPM_P2
2022/07/25 00:02:19;;;;;;;;;1.00;1.00;;;;;26.55;45.05;98733.47;4963008;28;103552;-77
2022/07/25 00:08:33;;;;;;;;;0.00;0.00;;;;;26.55;44.88;98731.53;4966008;28;102365;-77
2022/07/25 00:11:01;;;;;;;;;1.33;1.00;;;;;26.54;44.84;98727.09;4993407;28;103749;-77
2022/07/25 00:13:28;;;;;;;;;0.00;0.00;;;;;26.56;44.96;98721.28;4984092;28;109098;-77
2022/07/25 00:15:55;;;;;;;;;1.00;1.00;;;;;26.54;45.10;98724.34;4980340;28;102268;-77
2022/07/25 00:18:23;;;;;;;;;0.33;0.33;;;;;26.55;45.18;98722.38;4976612;28;102261;-77
2022/07/25 00:20:50;;;;;;;;;1.00;1.00;;;;;26.52;44.95;98726.56;4983216;28;102091;-77
2022/07/25 00:23:17;;;;;;;;;1.00;1.00;;;;;26.49;45.39;98721.63;4981283;28;103427;-76
2022/07/25 00:25:44;;;;;;;;;1.00;1.00;;;;;26.47;45.25;98723.09;4971758;28;102621;-77
2022/07/25 00:28:12;;;;;;;;;1.33;1.00;;;;;26.45;45.16;98719.78;4972564;28;102500;-77
2022/07/25 00:30:39;;;;;;;;;1.00;1.00;;;;;26.44;45.24;98715.34;4960454;28;102960;-77
2022/07/25 00:33:06;;;;;;;;;1.00;1.00;;;;;26.43;45.51;98716.50;4977453;28;103857;-77
2022/07/25 00:35:33;;;;;;;;;0.00;0.00;;;;;26.42;45.36;98710.13;4960306;28;103046;-77
2022/07/25 00:38:01;;;;;;;;;1.00;1.00;;;;;26.41;45.40;98702.09;4979898;28;102604;-77
2022/07/25 00:40:28;;;;;;;;;0.00;0.00;;;;;26.39;45.43;98699.59;4977065;28;102518;-77
2022/07/25 00:42:55;;;;;;;;;1.33;1.33;;;;;26.41;45.38;98702.91;4979808;28;104329;-77
2022/07/25 00:45:22;;;;;;;;;0.33;0.33;;;;;26.43;45.49;98705.41;4978655;28;102417;-77
2022/07/25 00:47:49;;;;;;;;;0.33;0.33;;;;;26.43;45.34;98706.19;4973871;28;102108;-77
2022/07/25 00:50:16;;;;;;;;;0.67;0.67;;;;;26.43;45.49;98700.66;4971147;28;102211;-77
2022/07/25 00:52:44;;;;;;;;;1.00;1.00;;;;;26.41;45.62;98689.06;4966398;28;102895;-77
2022/07/25 00:55:12;;;;;;;;;0.00;0.00;;;;;26.42;45.43;98693.47;4947976;28;102606;-77
2022/07/25 00:57:39;;;;;;;;;1.00;1.00;;;;;26.44;45.36;98690.38;4959139;28;102500;-77
2022/07/25 01:00:07;;;;;;;;;0.33;0.00;;;;;26.42;45.36;98692.66;4970097;28;103660;-77
2022/07/25 01:02:34;;;;;;;;;1.00;1.00;;;;;26.39;45.25;98701.56;4956774;28;104105;-77
2022/07/25 01:05:03;;;;;;;;;1.00;1.00;;;;;26.38;45.42;98699.94;4977614;28;102281;-77
2022/07/25 01:07:30;;;;;;;;;1.00;1.00;;;;;26.35;45.57;98700.50;4936711;28;102159;-77
2022/07/25 01:09:58;;;;;;;;;1.33;1.33;;;;;26.35;45.64;98695.78;4965174;28;102196;-77
2022/07/25 01:12:25;;;;;;;;;1.00;1.00;;;;;26.33;45.68;98700.00;4971914;28;103119;-77
2022/07/25 01:14:52;;;;;;;;;1.00;1.00;;;;;26.30;45.77;98695.88;4977443;28;103258;-77
2022/07/25 01:17:19;;;;;;;;;2.00;2.00;;;;;26.32;45.64;98693.63;4958087;28;103924;-77
2022/07/25 01:19:46;;;;;;;;;1.00;1.00;;;;;26.32;45.63;98693.63;4983096;28;102320;-77
2022/07/25 01:22:14;;;;;;;;;2.00;2.00;;;;;26.29;45.71;98688.72;4973513;28;104108;-77
2022/07/25 01:24:41;;;;;;;;;1.00;0.67;;;;;26.30;45.70;98684.78;4958731;28;102009;-77
2022/07/25 01:27:08;;;;;;;;;2.00;1.67;;;;;26.31;45.74;98686.44;4959004;28;102554;-77
2022/07/25 01:29:43;;;;;;;;;1.00;1.00;;;;;26.33;45.76;98691.69;4962781;28;102109;-77
2022/07/25 01:32:11;;;;;;;;;1.00;1.00;;;;;26.34;45.78;98690.56;4969593;28;104168;-77
2022/07/25 01:34:41;;;;;;;;;0.00;0.00;;;;;26.33;45.63;98686.97;4977627;28;102581;-77
2022/07/25 01:37:08;;;;;;;;;1.00;1.00;;;;;26.31;45.74;98691.16;4937640;28;102401;-77
2022/07/25 01:39:35;;;;;;;;;1.33;1.00;;;;;26.30;45.72;98683.97;4977056;28;102211;-77
2022/07/25 01:42:02;;;;;;;;;2.00;2.00;;;;;26.28;45.75;98686.22;4987014;28;104228;-77
2022/07/25 01:44:29;;;;;;;;;1.33;1.33;;;;;26.26;45.81;98678.19;4970913;28;102103;-77
2022/07/25 01:46:56;;;;;;;;;2.00;0.33;;;;;26.24;45.83;98680.47;4982039;28;102385;-77
2022/07/25 01:49:25;;;;;;;;;1.00;1.00;;;;;26.24;45.78;98677.69;4983851;28;104391;-77
2022/07/25 01:51:52;;;;;;;;;0.33;0.33;;;;;26.23;45.92;98678.81;4977856;28;104086;-77
2022/07/25 01:54:19;;;;;;;;;0.67;0.67;;;;;26.21;45.99;98675.50;4980814;28;102679;-77
2022/07/25 01:56:47;;;;;;;;;1.00;1.00;;;;;26.21;45.87;98675.50;4968649;28;103882;-77
2022/07/25 01:59:14;;;;;;;;;1.00;1.00;;;;;26.22;45.90;98679.09;4973369;28;102389;-77
2022/07/25 02:01:42;;;;;;;;;1.00;1.00;;;;;26.22;46.02;98682.69;4976759;28;104106;-77
2022/07/25 02:04:10;;;;;;;;;0.00;0.00;;;;;26.20;46.05;98676.63;4966955;28;102822;-77
2022/07/25 02:06:40;;;;;;;;;1.00;1.00;;;;;26.21;46.00;98683.81;4971184;28;106536;-77
2022/07/25 02:09:07;;;;;;;;;0.00;0.00;;;;;26.21;45.92;98681.03;4969376;28;102505;-77
2022/07/25 02:11:35;;;;;;;;;1.00;1.00;;;;;26.22;45.89;98677.16;4939354;28;104027;-77
2022/07/25 02:14:02;;;;;;;;;0.00;0.00;;;;;26.24;45.82;98679.63;4982670;28;101998;-77
2022/07/25 02:16:30;;;;;;;;;2.00;2.00;;;;;26.23;45.92;98684.34;4978655;28;102245;-77
2022/07/25 02:18:57;;;;;;;;;1.00;1.00;;;;;26.22;45.84;98682.69;4950175;28;102232;-77
2022/07/25 02:21:24;;;;;;;;;0.00;0.00;;;;;26.22;45.89;98677.16;4965054;28;104245;-77
2022/07/25 02:23:52;;;;;;;;;1.00;1.00;;;;;26.21;45.90;98675.50;4978262;28;103264;-77
2022/07/25 02:26:19;;;;;;;;;1.00;1.00;;;;;26.19;45.98;98674.97;4971444;28;110034;-77
2022/07/25 02:28:46;;;;;;;;;2.00;2.00;;;;;26.17;46.02;98674.44;4971866;28;102798;-77
2022/07/25 02:31:13;;;;;;;;;2.00;2.00;;;;;26.15;45.93;98671.16;4976590;28;104050;-77
2022/07/25 02:33:40;;;;;;;;;1.00;1.00;;;;;26.16;46.06;98668.06;4968769;28;102115;-77
2022/07/25 02:36:08;;;;;;;;;2.67;2.00;;;;;26.14;46.00;98669.50;4971878;28;102490;-77
2022/07/25 02:38:35;;;;;;;;;2.00;1.00;;;;;26.15;46.03;98671.16;4988026;28;102306;-77
2022/07/25 02:41:03;;;;;;;;;1.00;1.00;;;;;26.16;46.07;98678.34;4973314;28;104421;-77
2022/07/25 02:43:30;;;;;;;;;0.00;0.00;;;;;26.16;46.05;98667.25;4971329;28;102339;-77
2022/07/25 02:45:57;;;;;;;;;1.67;1.67;;;;;26.18;46.04;98676.06;4973827;28;102106;-77
2022/07/25 02:48:25;;;;;;;;;1.67;1.67;;;;;26.17;46.03;98679.97;4975475;28;102785;-77
2022/07/25 02:50:52;;;;;;;;;1.00;1.00;;;;;26.16;46.03;98673.59;4974697;28;105511;-77
2022/07/25 02:53:19;;;;;;;;;1.00;1.00;;;;;26.15;45.86;98676.69;4979698;28;102237;-77
2022/07/25 02:56:06;;;;;;;;;1.00;1.00;;;;;26.15;45.99;98682.22;4964153;28;102058;-77
2022/07/25 02:58:33;;;;;;;;;1.00;0.00;;;;;26.16;45.99;98684.69;4969929;28;102643;-77
2022/07/25 03:01:00;;;;;;;;;1.00;1.00;;;;;26.15;46.04;98682.22;4982139;28;108157;-77
2022/07/25 03:03:27;;;;;;;;;1.00;1.00;;;;;26.13;46.02;98685.28;4976759;28;102480;-77
2022/07/25 03:05:54;;;;;;;;;1.00;1.00;;;;;26.12;46.05;98683.63;4961895;28;102313;-77
2022/07/25 03:08:22;;;;;;;;;1.00;1.00;;;;;26.11;46.07;98686.72;4984214;28;102561;-77
2022/07/25 03:10:49;;;;;;;;;1.00;1.00;;;;;26.09;46.22;98683.44;4982651;28;105497;-77
2022/07/25 03:13:16;;;;;;;;;0.00;0.00;;;;;26.09;46.20;98683.44;4971210;28;102369;-77
2022/07/25 03:15:43;;;;;;;;;2.00;2.00;;;;;26.10;46.15;98677.59;4963530;28;103821;-77
2022/07/25 03:18:10;;;;;;;;;0.33;0.33;;;;;26.09;46.12;98666.78;4980867;28;102223;-77
2022/07/25 03:20:39;;;;;;;;;1.67;1.67;;;;;26.12;45.97;98675.31;4964993;28;105465;-77
2022/07/25 03:23:06;;;;;;;;;0.33;0.33;;;;;26.10;46.11;98668.44;4976470;28;102565;-77
2022/07/25 03:25:33;;;;;;;;;1.00;1.00;;;;;26.11;46.12;98672.88;4967504;28;102465;-77
2022/07/25 03:28:01;;;;;;;;;2.00;1.00;;;;;26.12;46.09;98678.09;4986101;28;103954;-77
2022/07/25 03:30:28;;;;;;;;;1.33;1.00;;;;;26.11;45.97;98668.16;4962711;28;104061;-78
2022/07/25 03:32:55;;;;;;;;;1.00;1.00;;;;;26.10;46.08;98669.28;4975619;28;103290;-77
2022/07/25 03:35:22;;;;;;;;;2.00;2.00;;;;;26.10;46.16;98671.22;4979150;28;102390;-77
2022/07/25 03:37:49;;;;;;;;;1.00;1.00;;;;;26.10;46.04;98672.03;4977220;28;102249;-77
2022/07/25 03:40:16;;;;;;;;;1.00;1.00;;;;;26.13;46.01;98668.66;4970913;28;104063;-77
2022/07/25 03:42:43;;;;;;;;;2.00;2.00;;;;;26.11;46.02;98670.09;4957655;28;102536;-77
2022/07/25 03:45:10;;;;;;;;;0.00;0.00;;;;;26.11;46.12;98664.56;4960798;28;102275;-78
2022/07/25 03:47:37;;;;;;;;;1.33;1.00;;;;;26.11;46.08;98667.34;4968233;28;102694;-78
2022/07/25 03:50:05;;;;;;;;;1.00;1.00;;;;;26.11;46.10;98667.34;4961866;28;104154;-77
2022/07/25 03:52:32;;;;;;;;;2.00;2.00;;;;;26.07;46.14;98657.97;4967447;28;102942;-77
2022/07/25 03:54:59;;;;;;;;;1.00;1.00;;;;;26.05;46.11;98661.03;4973569;28;105329;-77
2022/07/25 03:57:26;;;;;;;;;1.00;1.00;;;;;26.05;46.25;98655.50;4963020;28;102543;-77
2022/07/25 03:59:53;;;;;;;;;1.00;1.00;;;;;26.05;46.25;98654.66;4950594;28;104392;-77
2022/07/25 04:02:21;;;;;;;;;1.33;0.67;;;;;26.08;46.10;98657.66;4966969;28;102425;-77
2022/07/25 04:04:48;;;;;;;;;1.00;1.00;;;;;26.09;46.03;98659.31;4961262;28;102533;-77
2022/07/25 04:07:15;;;;;;;;;1.67;1.00;;;;;26.07;46.10;98653.22;4975835;28;102365;-77
2022/07/25 04:09:42;;;;;;;;;2.00;1.00;;;;;26.08;46.12;98654.06;4981380;28;103753;-77
2022/07/25 04:12:09;;;;;;;;;0.00;0.00;;;;;26.06;46.16;98651.59;4969645;28;102700;-77
2022/07/25 04:14:36;;;;;;;;;1.00;1.00;;;;;26.04;46.18;98651.06;4980956;28;103681;-77
2022/07/25 04:17:05;;;;;;;;;1.00;1.00;;;;;26.06;46.23;98645.22;4979054;28;102546;-77
2022/07/25 04:19:32;;;;;;;;;1.00;1.00;;;;;26.07;46.13;98652.44;4982039;28;109040;-77
2022/07/25 04:21:59;;;;;;;;;1.00;1.00;;;;;26.07;46.13;98652.44;4968683;28;102944;-77
2022/07/25 04:24:26;;;;;;;;;0.67;0.67;;;;;26.05;46.06;98649.13;4969730;28;102422;-77
2022/07/25 04:26:54;;;;;;;;;2.00;2.00;;;;;26.06;46.17;98645.22;4979643;28;102469;-77
2022/07/25 04:29:21;;;;;;;;;0.00;0.00;;;;;26.04;46.18;98647.47;4960606;28;104048;-77
2022/07/25 04:31:48;;;;;;;;;1.00;1.00;;;;;26.06;46.11;98656.31;4968540;28;102227;-77
2022/07/25 04:34:15;;;;;;;;;1.00;1.00;;;;;26.03;46.20;98654.13;4978605;28;102274;-77
2022/07/25 04:36:42;;;;;;;;;1.33;1.33;;;;;26.03;46.12;98662.44;4960382;28;103558;-77
2022/07/25 04:39:09;;;;;;;;;2.00;1.00;;;;;26.04;46.27;98659.38;4954384;28;108889;-77
2022/07/25 04:41:36;;;;;;;;;0.00;0.00;;;;;26.05;46.22;98660.22;4956610;28;102245;-77
2022/07/25 04:44:06;;;;;;;;;1.67;1.00;;;;;26.03;46.19;98656.91;4977836;28;102331;-77
2022/07/25 04:46:35;;;;;;;;;1.00;1.00;;;;;26.04;46.20;98658.56;4952367;28;102281;-77
2022/07/25 04:49:02;;;;;;;;;0.67;0.67;;;;;26.02;46.20;98661.66;4981565;28;104159;-77
2022/07/25 04:51:29;;;;;;;;;1.00;1.00;;;;;26.01;46.28;98656.41;4976599;28;102201;-77
2022/07/25 04:53:56;;;;;;;;;1.00;1.00;;;;;26.00;46.22;98665.81;4956460;28;102480;-77
2022/07/25 04:56:23;;;;;;;;;1.00;1.00;;;;;25.99;46.28;98656.69;4970077;28;102202;-77
2022/07/25 04:58:50;;;;;;;;;1.33;1.00;;;;;26.00;46.19;98663.88;4955806;28;104114;-77
2022/07/25 05:01:18;;;;;;;;;0.00;0.00;;;;;26.00;46.29;98660.28;4971794;28;102223;-77
2022/07/25 05:03:45;;;;;;;;;2.00;1.00;;;;;26.01;46.10;98664.72;4976286;28;102209;-77
2022/07/25 05:06:17;;;;;;;;;1.33;1.33;;;;;26.00;46.02;98660.28;4980189;28;102142;-77
2022/07/25 05:08:44;;;;;;;;;2.67;2.67;;;;;26.01;45.94;98660.00;4941439;28;104197;-77
2022/07/25 05:11:11;;;;;;;;;1.00;1.00;;;;;26.02;46.02;98650.56;4974547;28;102482;-77
2022/07/25 05:13:39;;;;;;;;;1.33;1.33;;;;;26.02;45.96;98649.72;4955312;28;102450;-77
2022/07/25 05:16:06;;;;;;;;;1.67;1.67;;;;;26.02;46.03;98644.19;4954706;28;104289;-77
2022/07/25 05:18:33;;;;;;;;;1.00;1.00;;;;;26.02;45.86;98641.41;4963358;28;103511;-77
2022/07/25 05:21:00;;;;;;;;;1.00;0.67;;;;;26.01;45.75;98640.59;4984485;28;102169;-77
2022/07/25 05:23:27;;;;;;;;;1.00;0.00;;;;;26.04;45.73;98639.16;4983733;28;102487;-77
2022/07/25 05:25:54;;;;;;;;;1.00;1.00;;;;;26.01;45.80;98632.28;4988141;28;102830;-77
2022/07/25 05:28:22;;;;;;;;;1.67;1.00;;;;;26.01;45.80;98623.13;4983970;28;104143;-77
2022/07/25 05:30:49;;;;;;;;;1.33;1.33;;;;;26.01;45.87;98623.13;4955149;28;102507;-77
2022/07/25 05:33:16;;;;;;;;;0.33;0.33;;;;;26.00;45.81;98629.78;4976287;28;102294;-77
2022/07/25 05:35:43;;;;;;;;;2.00;2.00;;;;;26.02;45.74;98633.09;4990898;28;102189;-77
2022/07/25 05:38:10;;;;;;;;;0.00;0.00;;;;;26.02;45.65;98624.78;4979313;28;105028;-77
2022/07/25 05:40:37;;;;;;;;;1.67;1.67;;;;;26.03;45.76;98623.66;4981004;28;102545;-77
2022/07/25 05:43:04;;;;;;;;;1.00;1.00;;;;;26.03;45.56;98618.09;4982303;28;102197;-77
2022/07/25 05:45:33;;;;;;;;;1.00;1.00;;;;;26.04;45.62;98620.59;4989060;28;102338;-77
2022/07/25 05:48:00;;;;;;;;;1.00;1.00;;;;;26.04;45.55;98620.59;4981167;28;110899;-77
2022/07/25 05:50:27;;;;;;;;;1.33;1.33;;;;;26.05;45.59;98622.25;4994711;28;102505;-77
2022/07/25 05:52:54;;;;;;;;;0.67;0.67;;;;;26.05;45.67;98618.63;4987795;28;102347;-77
2022/07/25 05:55:21;;;;;;;;;0.00;0.00;;;;;26.05;45.46;98621.41;4990660;28;102141;-77
2022/07/25 05:57:48;;;;;;;;;1.33;0.33;;;;;26.05;45.53;98626.94;4973776;28;104068;-77
2022/07/25 06:00:15;;;;;;;;;1.00;1.00;;;;;26.04;45.50;98620.59;4974856;28;102490;-77
2022/07/25 06:02:42;;;;;;;;;1.00;1.00;;;;;26.04;45.47;98619.75;4977028;28;102166;-77
2022/07/25 06:05:10;;;;;;;;;2.00;1.00;;;;;26.05;45.45;98615.88;4986647;28;102447;-77
2022/07/25 06:07:37;;;;;;;;;1.00;1.00;;;;;26.07;45.38;98610.84;4962738;28;104944;-77
2022/07/25 06:10:04;;;;;;;;;1.33;1.33;;;;;26.08;45.39;98605.00;4982903;28;102059;-77
2022/07/25 06:12:32;;;;;;;;;2.00;1.00;;;;;26.08;45.43;98610.53;4981609;28;102755;-77
2022/07/25 06:15:03;;;;;;;;;1.00;1.00;;;;;26.10;45.43;98604.69;4990173;28;103068;-77
2022/07/25 06:17:30;;;;;;;;;1.33;1.33;;;;;26.11;45.53;98598.03;4992205;28;108953;-77
2022/07/25 06:19:58;;;;;;;;;1.00;1.00;;;;;26.12;45.43;98594.94;4970701;28;102270;-77
2022/07/25 06:22:25;;;;;;;;;0.00;0.00;;;;;26.14;45.70;98600.19;4971148;28;101972;-77
2022/07/25 06:24:52;;;;;;;;;0.33;0.33;;;;;26.14;45.38;98598.25;4980108;28;102179;-77
2022/07/25 06:27:19;;;;;;;;;1.00;1.00;;;;;26.15;45.44;98588.00;4980534;28;104481;-77
2022/07/25 06:29:51;;;;;;;;;2.00;1.00;;;;;26.17;45.31;98588.50;4988550;28;102277;-77
2022/07/25 06:32:18;;;;;;;;;1.00;1.00;;;;;26.17;45.43;98589.31;4977853;28;102144;-77
2022/07/25 06:34:45;;;;;;;;;1.00;1.00;;;;;26.17;45.52;98575.47;4980364;28;104055;-77
2022/07/25 06:37:13;;;;;;;;;0.00;0.00;;;;;26.17;45.25;98578.22;4989775;28;104313;-77
2022/07/25 06:39:40;;;;;;;;;1.67;1.67;;;;;26.17;45.33;98578.22;4962198;28;102612;-77
2022/07/25 06:42:11;;;;;;;;;1.00;1.00;;;;;26.18;45.31;98577.13;4962869;28;102424;-77
2022/07/25 06:44:38;;;;;;;;;2.00;2.00;;;;;26.19;45.13;98573.22;4985903;28;102268;-77
2022/07/25 06:47:11;;;;;;;;;0.00;0.00;;;;;26.19;45.34;98576.00;4967597;28;104113;-77
2022/07/25 06:49:39;;;;;;;;;1.00;1.00;;;;;26.22;45.32;98571.00;4981775;28;102148;-77
2022/07/25 06:52:06;;;;;;;;;0.33;0.33;;;;;26.21;45.42;98566.59;4984294;28;102482;-77
2022/07/25 06:54:33;;;;;;;;;1.00;1.00;;;;;26.21;45.37;98566.59;4963263;28;102238;-77
2022/07/25 06:57:00;;;;;;;;;0.00;0.00;;;;;26.24;45.35;98569.56;4977134;28;108707;-77
2022/07/25 06:59:27;;;;;;;;;2.00;2.00;;;;;26.27;45.29;98568.97;4990632;28;102638;-77
2022/07/25 07:01:54;;;;;;;;;1.00;1.00;;;;;26.29;45.14;98555.63;4982282;28;102182;-77
2022/07/25 07:04:22;;;;;;;;;0.00;0.00;;;;;26.30;45.23;98568.34;4976584;28;103097;-77
2022/07/25 07:06:49;;;;;;;;;2.00;2.00;;;;;26.29;45.08;98561.16;4950743;28;104066;-77
2022/07/25 07:09:16;;;;;;;;;1.00;1.00;;;;;26.30;45.22;98553.69;4987058;28;102660;-77
2022/07/25 07:11:43;;;;;;;;;1.00;1.00;;;;;26.31;45.16;98563.63;4991706;28;102509;-77
2022/07/25 07:14:10;;;;;;;;;1.00;1.00;;;;;26.31;45.18;98550.59;4979954;28;102348;-77
2022/07/25 07:16:40;;;;;;;;;1.00;1.00;;;;;26.32;45.03;98560.56;4978066;28;103548;-77
2022/07/25 07:19:09;;;;;;;;;0.00;0.00;;;;;26.32;45.20;98555.00;4987104;28;102565;-77
2022/07/25 07:21:36;;;;;;;;;1.00;1.00;;;;;26.31;45.24;98555.31;4984756;28;102111;-77
2022/07/25 07:24:05;;;;;;;;;1.00;0.67;;;;;26.31;45.19;98558.91;4990022;28;102174;-77
2022/07/25 07:26:51;;;;;;;;;1.00;1.00;;;;;26.32;45.15;98554.19;4951710;28;109113;-77
2022/07/25 07:29:18;;;;;;;;;0.00;0.00;;;;;26.32;45.20;98557.78;4964370;28;102607;-77
2022/07/25 07:31:45;;;;;;;;;2.00;1.00;;;;;26.33;45.22;98556.66;4984574;28;102156;-77
2022/07/25 07:34:15;;;;;;;;;0.33;0.33;;;;;26.34;45.09;98560.25;4960011;28;102056;-77
2022/07/25 07:36:42;;;;;;;;;0.67;0.67;;;;;26.33;44.96;98555.84;4981759;28;103946;-77
2022/07/25 07:39:10;;;;;;;;;1.00;0.00;;;;;26.33;45.17;98550.28;4972767;28;102424;-77
2022/07/25 07:41:39;;;;;;;;;1.00;1.00;;;;;26.33;45.18;98548.34;4960407;28;102208;-77
2022/07/25 07:44:07;;;;;;;;;2.00;2.00;;;;;26.34;45.11;98544.44;4982598;28;102645;-77
2022/07/25 07:46:34;;;;;;;;;1.00;1.00;;;;;26.36;45.14;98538.56;4986975;28;104078;-77
2022/07/25 07:49:01;;;;;;;;;0.33;0.00;;;;;26.36;45.02;98539.41;4989232;28;102315;-77
2022/07/25 07:51:29;;;;;;;;;2.00;1.00;;;;;26.36;45.17;98539.41;4975596;28;102099;-77
2022/07/25 07:56:42;;;;;;;;;1.00;1.00;;;;;26.38;45.25;98537.16;4978501;28;109259;-77
2022/07/25 07:59:09;;;;;;;;;0.00;0.00;;;;;26.38;45.12;98534.38;4977880;28;102303;-77
2022/07/25 08:01:36;;;;;;;;;0.67;0.67;;;;;26.38;45.14;98534.38;4984930;28;102014;-77
2022/07/25 08:04:04;;;;;;;;;1.00;1.00;;;;;26.39;45.14;98530.47;4983031;28;102118;-77
2022/07/25 08:06:31;;;;;;;;;0.00;0.00;;;;;26.40;45.03;98529.34;4986974;28;108920;-77
2022/07/25 08:08:58;;;;;;;;;0.00;0.00;;;;;26.40;45.11;98540.44;4977745;28;102174;-77
2022/07/25 08:11:25;;;;;;;;;1.00;1.00;;;;;26.41;44.83;98530.16;4984652;28;102553;-77
2022/07/25 08:13:52;;;;;;;;;0.00;0.00;;;;;26.40;44.88;98525.75;4976243;28;103177;-77
2022/07/25 08:16:19;;;;;;;;;1.00;1.00;;;;;26.40;45.08;98521.03;4963430;28;103975;-77
2022/07/25 08:18:46;;;;;;;;;0.33;0.33;;;;;26.40;45.15;98523.78;4980106;28;107475;-77
2022/07/25 08:21:14;;;;;;;;;1.00;0.33;;;;;26.40;45.08;98522.97;4981105;28;102129;-77
2022/07/25 08:23:41;;;;;;;;;1.00;1.00;;;;;26.42;45.15;98529.88;4980801;28;102960;-77
2022/07/25 08:26:08;;;;;;;;;2.00;1.00;;;;;26.42;45.13;98532.66;4971715;28;104138;-77
2022/07/25 08:28:35;;;;;;;;;0.00;0.00;;;;;26.44;44.86;98527.59;4958387;28;102190;-77
2022/07/25 08:31:02;;;;;;;;;1.00;1.00;;;;;26.44;45.01;98527.59;4977344;28;102307;-77
2022/07/25 08:33:30;;;;;;;;;0.00;0.00;;;;;26.45;45.08;98536.75;4971491;28;103426;-77
2022/07/25 08:36:00;;;;;;;;;0.67;0.67;;;;;26.45;45.01;98529.25;4990888;28;104080;-77
2022/07/25 08:38:27;;;;;;;;;0.33;0.33;;;;;26.45;45.03;98520.94;4984479;28;102509;-77
2022/07/25 08:40:54;;;;;;;;;1.00;1.00;;;;;26.46;45.00;98524.53;4974188;28;102795;-77
2022/07/25 08:43:22;;;;;;;;;0.00;0.00;;;;;26.47;45.04;98521.47;4968698;28;102649;-77
2022/07/25 08:45:50;;;;;;;;;0.00;0.00;;;;;26.47;44.94;98529.78;4986514;28;104144;-77
2022/07/25 08:48:22;;;;;;;;;0.33;0.33;;;;;26.48;44.91;98523.09;4964549;28;102241;-77
2022/07/25 08:50:50;;;;;;;;;1.00;1.00;;;;;26.47;45.09;98529.78;4973946;28;102550;-77
2022/07/25 08:53:18;;;;;;;;;0.00;0.00;;;;;26.48;44.96;98525.84;4969687;28;102817;-77
2022/07/25 08:56:05;;;;;;;;;0.67;0.33;;;;;26.47;45.02;98521.47;4972467;28;109551;-77
2022/07/25 08:58:40;;;;;;;;;1.00;1.00;;;;;26.48;45.10;98520.31;4950033;28;102197;-77
2022/07/25 09:01:10;;;;;;;;;0.33;0.33;;;;;26.48;45.10;98517.53;4981399;28;102201;-77
2022/07/25 09:03:37;;;;;;;;;0.00;0.00;;;;;26.49;45.05;98510.88;4993986;28;102501;-77
2022/07/25 09:06:15;;;;;;;;;1.00;1.00;;;;;26.47;45.23;98510.38;4964561;28;104030;-77
2022/07/25 09:08:57;;;;;;;;;1.00;1.00;;;;;26.50;45.06;98520.84;4977692;28;102238;-77
2022/07/25 09:11:35;;;;;;;;;0.33;0.00;;;;;26.49;45.16;98510.03;4962315;28;102358;-77
2022/07/25 09:14:07;;;;;;;;;1.67;1.00;;;;;26.50;45.08;98511.69;4955224;28;102277;-77
2022/07/25 09:16:43;;;;;;;;;0.00;0.00;;;;;26.49;45.09;98497.00;4948306;28;108979;-77
2022/07/25 09:19:15;;;;;;;;;1.00;1.00;;;;;26.49;44.97;98497.00;4960061;28;102677;-77
2022/07/25 09:21:43;;;;;;;;;0.33;0.00;;;;;26.50;45.00;98501.44;4985558;28;102496;-77
2022/07/25 09:24:11;;;;;;;;;0.67;0.67;;;;;26.52;45.05;98504.69;4960491;28;102481;-77
2022/07/25 09:26:48;;;;;;;;;0.00;0.00;;;;;26.52;44.87;98504.69;4964199;28;104364;-77
2022/07/25 09:29:27;;;;;;;;;0.33;0.33;;;;;26.51;45.13;98492.00;4962647;28;110175;-77
2022/07/25 09:31:54;;;;;;;;;1.00;1.00;;;;;26.53;44.99;98499.97;4968007;28;102243;-77
2022/07/25 09:34:48;;;;;;;;;0.33;0.00;;;;;26.52;44.99;98495.59;4971724;28;102126;-77
2022/07/25 09:37:16;;;;;;;;;0.33;0.00;;;;;26.53;44.95;98492.47;4971711;28;108809;-77
2022/07/25 09:39:45;;;;;;;;;0.00;0.00;;;;;26.53;45.10;98486.94;4983926;28;102341;-77
2022/07/25 09:42:14;;;;;;;;;1.00;0.00;;;;;26.54;45.07;98485.00;4981716;28;102224;-77
2022/07/25 09:44:41;;;;;;;;;0.00;0.00;;;;;26.54;45.17;98485.00;4969622;28;102351;-77
2022/07/25 09:47:13;;;;;;;;;0.00;0.00;;;;;26.54;45.02;98485.81;4960129;28;103627;-77
2022/07/25 09:49:43;;;;;;;;;0.33;0.33;;;;;26.54;45.07;98485.81;4964530;28;102280;-77
2022/07/25 09:52:11;;;;;;;;;0.00;0.00;;;;;26.55;45.11;98493.00;4955921;28;102249;-77
2022/07/25 09:54:38;;;;;;;;;1.00;1.00;;;;;26.55;45.09;98476.38;4955065;28;102604;-77
2022/07/25 09:57:05;;;;;;;;;1.00;1.00;;;;;26.56;45.10;98483.56;4957449;28;104106;-77
2022/07/25 09:59:33;;;;;;;;;2.00;1.00;;;;;26.55;45.09;98470.81;4966118;28;102577;-77
2022/07/25 10:02:29;;;;;;;;;0.00;0.00;;;;;26.57;45.09;98464.94;4931487;28;103141;-77
2022/07/25 10:05:14;;;;;;;;;0.00;0.00;;;;;26.55;45.01;98465.28;4954060;28;102442;-77
2022/07/25 10:07:44;;;;;;;;;0.33;0.33;;;;;26.57;45.19;98465.78;4964416;28;109032;-77
2022/07/25 10:10:27;;;;;;;;;0.00;0.00;;;;;26.58;45.21;98463.81;4955913;28;102407;-77
2022/07/25 10:13:10;;;;;;;;;1.00;1.00;;;;;26.57;45.33;98464.94;4949169;28;102393;-77
2022/07/25 10:15:41;;;;;;;;;0.00;0.00;;;;;26.57;45.04;98463.00;4959868;28;102237;-77
2022/07/25 10:18:08;;;;;;;;;1.00;1.00;;;;;26.58;45.03;98459.09;4948837;28;104125;-77
2022/07/25 10:20:35;;;;;;;;;0.00;0.00;;;;;26.58;45.06;98459.09;4961487;28;102127;-77
2022/07/25 10:23:03;;;;;;;;;0.00;0.00;;;;;26.59;44.88;98455.22;4953908;28;102385;-78
2022/07/25 10:25:30;;;;;;;;;0.00;0.00;;;;;26.60;44.96;98444.94;4960860;28;102752;-78
2022/07/25 10:28:07;;;;;;;;;0.67;0.67;;;;;26.60;45.02;98459.63;4942834;28;104114;-77
2022/07/25 10:30:34;;;;;;;;;1.00;1.00;;;;;26.61;45.04;98457.69;4939857;28;102642;-77
2022/07/25 10:33:13;;;;;;;;;0.00;0.00;;;;;26.62;45.08;98460.13;4959113;28;102480;-77
2022/07/25 10:35:40;;;;;;;;;0.00;0.00;;;;;26.62;45.15;98449.03;4963255;28;102613;-77
2022/07/25 10:38:08;;;;;;;;;0.67;0.67;;;;;26.63;45.14;98450.69;4965380;28;104172;-77
2022/07/25 10:40:42;;;;;;;;;0.00;0.00;;;;;26.64;45.06;98444.00;4975414;28;102052;-77
2022/07/25 10:43:20;;;;;;;;;0.33;0.33;;;;;26.64;45.27;98443.19;4962603;28;102571;-77
2022/07/25 10:45:50;;;;;;;;;0.00;0.00;;;;;26.64;45.05;98437.63;4949448;28;102334;-77
2022/07/25 10:48:24;;;;;;;;;0.00;0.00;;;;;26.64;45.00;98441.22;4942649;28;104085;-77
2022/07/25 10:50:56;;;;;;;;;0.00;0.00;;;;;26.64;44.97;98423.75;4948060;28;102090;-77
2022/07/25 10:53:33;;;;;;;;;0.33;0.33;;;;;26.64;45.08;98423.75;4947462;28;102204;-77
2022/07/25 10:56:20;;;;;;;;;0.00;0.00;;;;;26.66;44.99;98420.69;4930228;28;102185;-77
2022/07/25 10:58:57;;;;;;;;;0.00;0.00;;;;;26.66;45.15;98418.72;4944625;28;108842;-77
2022/07/25 11:01:32;;;;;;;;;0.00;0.00;;;;;26.68;45.17;98418.41;4952298;28;102284;-77
2022/07/25 11:04:01;;;;;;;;;0.00;0.00;;;;;26.66;44.91;98424.25;4944679;28;102196;-77
2022/07/25 11:06:38;;;;;;;;;1.00;1.00;;;;;26.69;45.09;98420.88;4943675;28;102187;-77
2022/07/25 11:09:18;;;;;;;;;0.00;0.00;;;;;26.68;44.97;98416.47;4944447;28;108886;-77
2022/07/25 11:11:56;;;;;;;;;0.00;0.00;;;;;26.69;45.02;98408.97;4936230;28;102156;-77
2022/07/25 11:14:24;;;;;;;;;1.00;1.00;;;;;26.70;45.02;98407.84;4941118;28;102123;-77
2022/07/25 11:16:52;;;;;;;;;0.33;0.33;;;;;26.70;45.15;98405.91;4952812;28;102415;-77
2022/07/25 11:19:22;;;;;;;;;0.00;0.00;;;;;26.71;45.09;98398.38;4928659;28;104190;-77
2022/07/25 11:21:50;;;;;;;;;0.00;0.00;;;;;26.71;44.98;98399.19;4939536;28;102642;-77
2022/07/25 11:24:18;;;;;;;;;1.00;0.00;;;;;26.72;45.24;98383.38;4944225;28;102487;-77
2022/07/25 11:26:48;;;;;;;;;0.00;0.00;;;;;26.71;45.12;98381.72;4946023;28;102545;-77
2022/07/25 11:29:31;;;;;;;;;0.00;0.00;;;;;26.73;44.94;98379.47;4920932;28;104048;-77
2022/07/25 11:32:00;;;;;;;;;0.00;0.00;;;;;26.73;45.12;98379.47;4942635;28;102315;-77
2022/07/25 11:34:34;;;;;;;;;1.00;1.00;;;;;26.73;45.20;98368.38;4948749;28;102245;-77
2022/07/25 11:37:04;;;;;;;;;1.00;0.00;;;;;26.73;44.96;98371.97;4949095;28;102538;-77
2022/07/25 11:39:33;;;;;;;;;0.00;0.00;;;;;26.74;45.16;98367.25;4951158;28;104030;-77